sensor_id;sensor_type;location;lat;lon;timestamp;P1;durP1;ratioP1;P2;durP2;ratioP2
21657;SDS011;10990;48.174;9.782;2023-03-01T00:02:14;29.00;;;13.17;;
21657;SDS011;10990;48.174;9.782;2023-03-01T00:04:42;28.57;;;13.37;;
21657;SDS011;10990;48.174;9.782;2023-03-01T00:07:09;31.33;;;13.93;;
21657;SDS011;10990;48.174;9.782;2023-03-01T00:09:35;28.37;;;14.10;;
21657;SDS011;10990;48.174;9.782;2023-03-01T00:12:03;29.47;;;14.10;;
21657;SDS011;10990;48.174;9.782;2023-03-01T00:14:31;25.83;;;13.13;;
21657;SDS011;10990;48.174;9.782;2023-03-01T00:16:58;29.73;;;14.03;;
21657;SDS011;10990;48.174;9.782;2023-03-01T00:19:25;28.40;;;14.30;;
21657;SDS011;10990;48.174;9.782;2023-03-01T00:21:53;24.90;;;12.73;;
21657;SDS011;10990;48.174;9.782;2023-03-01T00:24:20;28.60;;;14.27;;
21657;SDS011;10990;48.174;9.782;2023-03-01T00:26:46;28.97;;;14.47;;
21657;SDS011;10990;48.174;9.782;2023-03-01T00:29:13;28.93;;;14.50;;
21657;SDS011;10990;48.174;9.782;2023-03-01T00:31:40;29.93;;;13.93;;
21657;SDS011;10990;48.174;9.782;2023-03-01T00:34:07;25.57;;;12.20;;
21657;SDS011;10990;48.174;9.782;2023-03-01T00:36:34;27.47;;;13.90;;
21657;SDS011;10990;48.174;9.782;2023-03-01T00:39:05;31.30;;;14.00;;
21657;SDS011;10990;48.174;9.782;2023-03-01T00:41:36;30.07;;;14.33;;
21657;SDS011;10990;48.174;9.782;2023-03-01T00:44:03;30.13;;;14.10;;
21657;SDS011;10990;48.174;9.782;2023-03-01T00:46:30;29.33;;;14.83;;
21657;SDS011;10990;48.174;9.782;2023-03-01T00:48:57;29.80;;;14.10;;
21657;SDS011;10990;48.174;9.782;2023-03-01T00:51:27;30.13;;;14.30;;
21657;SDS011;10990;48.174;9.782;2023-03-01T00:53:56;27.23;;;14.17;;
21657;SDS011;10990;48.174;9.782;2023-03-01T00:56:25;30.47;;;14.53;;
21657;SDS011;10990;48.174;9.782;2023-03-01T00:58:52;30.83;;;15.60;;
21657;SDS011;10990;48.174;9.782;2023-03-01T01:01:27;29.87;;;14.90;;
21657;SDS011;10990;48.174;9.782;2023-03-01T01:03:56;28.27;;;14.07;;
21657;SDS011;10990;48.174;9.782;2023-03-01T01:06:24;30.43;;;14.17;;
21657;SDS011;10990;48.174;9.782;2023-03-01T01:08:53;27.40;;;14.00;;
21657;SDS011;10990;48.174;9.782;2023-03-01T01:11:21;28.87;;;14.37;;
21657;SDS011;10990;48.174;9.782;2023-03-01T01:13:50;32.13;;;15.03;;
21657;SDS011;10990;48.174;9.782;2023-03-01T01:16:19;28.07;;;14.20;;
21657;SDS011;10990;48.174;9.782;2023-03-01T01:18:48;31.63;;;15.03;;
21657;SDS011;10990;48.174;9.782;2023-03-01T01:21:15;29.10;;;14.70;;
21657;SDS011;10990;48.174;9.782;2023-03-01T01:23:44;29.67;;;15.23;;
21657;SDS011;10990;48.174;9.782;2023-03-01T01:26:12;28.60;;;14.30;;
21657;SDS011;10990;48.174;9.782;2023-03-01T01:28:41;30.17;;;15.13;;
21657;SDS011;10990;48.174;9.782;2023-03-01T01:31:09;28.03;;;14.93;;
21657;SDS011;10990;48.174;9.782;2023-03-01T01:33:36;31.80;;;14.93;;
21657;SDS011;10990;48.174;9.782;2023-03-01T01:36:04;31.00;;;14.53;;
21657;SDS011;10990;48.174;9.782;2023-03-01T01:38:31;29.07;;;15.07;;
21657;SDS011;10990;48.174;9.782;2023-03-01T01:40:58;29.77;;;14.90;;
21657;SDS011;10990;48.174;9.782;2023-03-01T01:43:26;29.63;;;14.87;;
21657;SDS011;10990;48.174;9.782;2023-03-01T01:45:55;30.53;;;14.93;;
21657;SDS011;10990;48.174;9.782;2023-03-01T01:48:26;32.10;;;15.60;;
21657;SDS011;10990;48.174;9.782;2023-03-01T01:51:05;31.23;;;15.13;;
21657;SDS011;10990;48.174;9.782;2023-03-01T01:53:35;30.10;;;15.37;;
21657;SDS011;10990;48.174;9.782;2023-03-01T01:56:05;33.37;;;15.97;;
21657;SDS011;10990;48.174;9.782;2023-03-01T01:58:40;31.47;;;15.53;;
21657;SDS011;10990;48.174;9.782;2023-03-01T02:01:09;32.43;;;15.70;;
21657;SDS011;10990;48.174;9.782;2023-03-01T02:03:38;34.30;;;16.33;;
21657;SDS011;10990;48.174;9.782;2023-03-01T02:06:11;37.07;;;16.70;;
21657;SDS011;10990;48.174;9.782;2023-03-01T02:08:43;36.63;;;16.60;;
21657;SDS011;10990;48.174;9.782;2023-03-01T02:11:11;35.10;;;16.23;;
21657;SDS011;10990;48.174;9.782;2023-03-01T02:13:40;32.03;;;16.37;;
21657;SDS011;10990;48.174;9.782;2023-03-01T02:16:09;32.97;;;16.73;;
21657;SDS011;10990;48.174;9.782;2023-03-01T02:18:39;32.90;;;15.63;;
21657;SDS011;10990;48.174;9.782;2023-03-01T02:21:13;35.13;;;16.80;;
21657;SDS011;10990;48.174;9.782;2023-03-01T02:23:50;35.70;;;16.70;;
21657;SDS011;10990;48.174;9.782;2023-03-01T02:26:20;32.97;;;16.13;;
21657;SDS011;10990;48.174;9.782;2023-03-01T02:28:59;38.53;;;17.33;;
21657;SDS011;10990;48.174;9.782;2023-03-01T02:31:26;36.37;;;17.13;;
21657;SDS011;10990;48.174;9.782;2023-03-01T02:34:09;35.03;;;17.30;;
21657;SDS011;10990;48.174;9.782;2023-03-01T02:36:40;35.57;;;16.57;;
21657;SDS011;10990;48.174;9.782;2023-03-01T02:39:12;36.20;;;16.50;;
21657;SDS011;10990;48.174;9.782;2023-03-01T02:41:44;37.53;;;17.13;;
21657;SDS011;10990;48.174;9.782;2023-03-01T02:44:15;34.33;;;16.33;;
21657;SDS011;10990;48.174;9.782;2023-03-01T02:46:43;38.80;;;17.70;;
21657;SDS011;10990;48.174;9.782;2023-03-01T02:49:22;35.93;;;17.57;;
21657;SDS011;10990;48.174;9.782;2023-03-01T02:51:57;36.97;;;17.07;;
21657;SDS011;10990;48.174;9.782;2023-03-01T02:54:36;35.37;;;17.27;;
21657;SDS011;10990;48.174;9.782;2023-03-01T02:57:08;35.10;;;17.20;;
21657;SDS011;10990;48.174;9.782;2023-03-01T02:59:36;37.03;;;17.10;;
21657;SDS011;10990;48.174;9.782;2023-03-01T03:02:06;34.70;;;16.57;;
21657;SDS011;10990;48.174;9.782;2023-03-01T03:04:33;35.33;;;17.03;;
21657;SDS011;10990;48.174;9.782;2023-03-01T03:07:01;38.00;;;16.97;;
21657;SDS011;10990;48.174;9.782;2023-03-01T03:09:27;39.53;;;17.40;;
21657;SDS011;10990;48.174;9.782;2023-03-01T03:11:55;38.30;;;17.90;;
21657;SDS011;10990;48.174;9.782;2023-03-01T03:14:22;37.13;;;17.40;;
21657;SDS011;10990;48.174;9.782;2023-03-01T03:16:50;38.30;;;18.73;;
21657;SDS011;10990;48.174;9.782;2023-03-01T03:19:17;37.37;;;18.03;;
21657;SDS011;10990;48.174;9.782;2023-03-01T03:21:44;38.17;;;17.97;;
21657;SDS011;10990;48.174;9.782;2023-03-01T03:24:12;37.67;;;18.00;;
21657;SDS011;10990;48.174;9.782;2023-03-01T03:26:39;40.37;;;17.70;;
21657;SDS011;10990;48.174;9.782;2023-03-01T03:29:05;41.13;;;18.13;;
21657;SDS011;10990;48.174;9.782;2023-03-01T03:31:32;38.07;;;17.70;;
21657;SDS011;10990;48.174;9.782;2023-03-01T03:34:01;35.77;;;17.87;;
21657;SDS011;10990;48.174;9.782;2023-03-01T03:36:28;36.27;;;18.10;;
21657;SDS011;10990;48.174;9.782;2023-03-01T03:38:54;38.47;;;19.03;;
21657;SDS011;10990;48.174;9.782;2023-03-01T03:41:21;36.07;;;18.40;;
21657;SDS011;10990;48.174;9.782;2023-03-01T03:43:48;37.70;;;18.63;;
21657;SDS011;10990;48.174;9.782;2023-03-01T03:46:14;40.17;;;18.60;;
21657;SDS011;10990;48.174;9.782;2023-03-01T03:48:42;37.60;;;18.27;;
21657;SDS011;10990;48.174;9.782;2023-03-01T03:51:12;38.70;;;18.27;;
21657;SDS011;10990;48.174;9.782;2023-03-01T03:53:39;40.00;;;18.17;;
21657;SDS011;10990;48.174;9.782;2023-03-01T03:56:07;38.70;;;18.53;;
21657;SDS011;10990;48.174;9.782;2023-03-01T03:58:33;40.83;;;18.23;;
21657;SDS011;10990;48.174;9.782;2023-03-01T04:01:00;37.53;;;18.30;;
21657;SDS011;10990;48.174;9.782;2023-03-01T04:03:27;42.60;;;18.70;;
21657;SDS011;10990;48.174;9.782;2023-03-01T04:05:56;39.13;;;18.23;;
21657;SDS011;10990;48.174;9.782;2023-03-01T04:08:25;36.90;;;18.60;;
21657;SDS011;10990;48.174;9.782;2023-03-01T04:10:56;39.67;;;18.33;;
21657;SDS011;10990;48.174;9.782;2023-03-01T04:13:24;36.63;;;18.10;;
21657;SDS011;10990;48.174;9.782;2023-03-01T04:15:52;37.23;;;18.03;;
21657;SDS011;10990;48.174;9.782;2023-03-01T04:18:20;38.67;;;18.27;;
21657;SDS011;10990;48.174;9.782;2023-03-01T04:20:48;38.83;;;18.43;;
21657;SDS011;10990;48.174;9.782;2023-03-01T04:23:17;38.43;;;19.10;;
21657;SDS011;10990;48.174;9.782;2023-03-01T04:25:49;40.87;;;19.17;;
21657;SDS011;10990;48.174;9.782;2023-03-01T04:28:19;42.67;;;19.27;;
21657;SDS011;10990;48.174;9.782;2023-03-01T04:30:46;36.07;;;17.50;;
21657;SDS011;10990;48.174;9.782;2023-03-01T04:33:13;36.63;;;18.07;;
21657;SDS011;10990;48.174;9.782;2023-03-01T04:35:39;36.23;;;18.20;;
21657;SDS011;10990;48.174;9.782;2023-03-01T04:38:06;35.50;;;18.10;;
21657;SDS011;10990;48.174;9.782;2023-03-01T04:40:34;37.93;;;18.47;;
21657;SDS011;10990;48.174;9.782;2023-03-01T04:43:03;38.20;;;18.07;;
21657;SDS011;10990;48.174;9.782;2023-03-01T04:45:31;36.60;;;18.20;;
21657;SDS011;10990;48.174;9.782;2023-03-01T04:47:59;41.27;;;18.77;;
21657;SDS011;10990;48.174;9.782;2023-03-01T04:50:26;37.70;;;18.80;;
21657;SDS011;10990;48.174;9.782;2023-03-01T04:52:52;39.80;;;18.63;;
21657;SDS011;10990;48.174;9.782;2023-03-01T04:55:19;38.63;;;18.33;;
21657;SDS011;10990;48.174;9.782;2023-03-01T04:57:46;37.80;;;18.10;;
21657;SDS011;10990;48.174;9.782;2023-03-01T05:00:15;37.83;;;18.70;;
21657;SDS011;10990;48.174;9.782;2023-03-01T05:02:48;41.40;;;19.43;;
21657;SDS011;10990;48.174;9.782;2023-03-01T05:05:19;37.00;;;18.03;;
21657;SDS011;10990;48.174;9.782;2023-03-01T05:07:51;37.73;;;18.43;;
21657;SDS011;10990;48.174;9.782;2023-03-01T05:10:19;35.90;;;17.87;;
21657;SDS011;10990;48.174;9.782;2023-03-01T05:12:45;40.97;;;18.63;;
21657;SDS011;10990;48.174;9.782;2023-03-01T05:15:13;37.57;;;18.73;;
21657;SDS011;10990;48.174;9.782;2023-03-01T05:17:41;33.67;;;17.50;;
21657;SDS011;10990;48.174;9.782;2023-03-01T05:20:08;37.73;;;18.10;;
21657;SDS011;10990;48.174;9.782;2023-03-01T05:22:36;38.67;;;18.47;;
21657;SDS011;10990;48.174;9.782;2023-03-01T05:25:03;42.47;;;19.13;;
21657;SDS011;10990;48.174;9.782;2023-03-01T05:27:30;37.83;;;18.30;;
21657;SDS011;10990;48.174;9.782;2023-03-01T05:29:57;38.57;;;17.97;;
21657;SDS011;10990;48.174;9.782;2023-03-01T05:32:25;37.77;;;18.63;;
21657;SDS011;10990;48.174;9.782;2023-03-01T05:34:52;40.23;;;19.00;;
21657;SDS011;10990;48.174;9.782;2023-03-01T05:37:20;37.80;;;18.90;;
21657;SDS011;10990;48.174;9.782;2023-03-01T05:39:46;40.60;;;18.47;;
21657;SDS011;10990;48.174;9.782;2023-03-01T05:42:15;35.60;;;17.43;;
21657;SDS011;10990;48.174;9.782;2023-03-01T05:44:42;41.97;;;19.20;;
21657;SDS011;10990;48.174;9.782;2023-03-01T05:47:08;37.83;;;18.30;;
21657;SDS011;10990;48.174;9.782;2023-03-01T05:49:37;38.57;;;18.90;;
21657;SDS011;10990;48.174;9.782;2023-03-01T05:52:03;40.30;;;18.47;;
21657;SDS011;10990;48.174;9.782;2023-03-01T05:54:30;38.43;;;18.40;;
21657;SDS011;10990;48.174;9.782;2023-03-01T05:56:58;42.60;;;18.63;;
21657;SDS011;10990;48.174;9.782;2023-03-01T05:59:24;37.37;;;18.33;;
21657;SDS011;10990;48.174;9.782;2023-03-01T06:01:51;39.13;;;18.07;;
21657;SDS011;10990;48.174;9.782;2023-03-01T06:04:18;38.63;;;18.07;;
21657;SDS011;10990;48.174;9.782;2023-03-01T06:06:47;37.57;;;18.23;;
21657;SDS011;10990;48.174;9.782;2023-03-01T06:09:14;37.70;;;18.37;;
21657;SDS011;10990;48.174;9.782;2023-03-01T06:11:40;39.37;;;18.27;;
21657;SDS011;10990;48.174;9.782;2023-03-01T06:14:07;37.63;;;17.87;;
21657;SDS011;10990;48.174;9.782;2023-03-01T06:16:35;36.03;;;18.07;;
21657;SDS011;10990;48.174;9.782;2023-03-01T06:19:02;37.20;;;17.93;;
21657;SDS011;10990;48.174;9.782;2023-03-01T06:21:28;38.33;;;17.93;;
21657;SDS011;10990;48.174;9.782;2023-03-01T06:23:57;36.57;;;17.80;;
21657;SDS011;10990;48.174;9.782;2023-03-01T06:26:23;41.00;;;19.07;;
21657;SDS011;10990;48.174;9.782;2023-03-01T06:28:50;37.07;;;18.13;;
21657;SDS011;10990;48.174;9.782;2023-03-01T06:31:17;39.70;;;18.30;;
21657;SDS011;10990;48.174;9.782;2023-03-01T06:33:43;39.70;;;18.30;;
21657;SDS011;10990;48.174;9.782;2023-03-01T06:36:10;39.63;;;18.37;;
21657;SDS011;10990;48.174;9.782;2023-03-01T06:38:37;39.37;;;18.83;;
21657;SDS011;10990;48.174;9.782;2023-03-01T06:41:07;38.60;;;18.47;;
21657;SDS011;10990;48.174;9.782;2023-03-01T06:43:33;38.17;;;18.33;;
21657;SDS011;10990;48.174;9.782;2023-03-01T06:46:03;41.30;;;19.30;;
21657;SDS011;10990;48.174;9.782;2023-03-01T06:48:30;38.17;;;19.13;;
21657;SDS011;10990;48.174;9.782;2023-03-01T06:50:57;39.23;;;18.43;;
21657;SDS011;10990;48.174;9.782;2023-03-01T06:53:25;37.20;;;18.00;;
21657;SDS011;10990;48.174;9.782;2023-03-01T06:55:53;38.80;;;19.13;;
21657;SDS011;10990;48.174;9.782;2023-03-01T06:58:22;40.07;;;19.00;;
21657;SDS011;10990;48.174;9.782;2023-03-01T07:00:49;39.83;;;19.03;;
21657;SDS011;10990;48.174;9.782;2023-03-01T07:03:15;43.60;;;18.90;;
21657;SDS011;10990;48.174;9.782;2023-03-01T07:05:42;38.23;;;18.73;;
21657;SDS011;10990;48.174;9.782;2023-03-01T07:08:09;39.23;;;19.27;;
21657;SDS011;10990;48.174;9.782;2023-03-01T07:10:36;40.33;;;19.00;;
21657;SDS011;10990;48.174;9.782;2023-03-01T07:13:03;38.73;;;18.80;;
21657;SDS011;10990;48.174;9.782;2023-03-01T07:15:33;42.03;;;19.40;;
21657;SDS011;10990;48.174;9.782;2023-03-01T07:17:59;45.20;;;19.80;;
21657;SDS011;10990;48.174;9.782;2023-03-01T07:20:26;38.67;;;19.40;;
21657;SDS011;10990;48.174;9.782;2023-03-01T07:22:53;40.53;;;19.53;;
21657;SDS011;10990;48.174;9.782;2023-03-01T07:25:22;41.23;;;18.73;;
21657;SDS011;10990;48.174;9.782;2023-03-01T07:27:49;40.10;;;19.80;;
21657;SDS011;10990;48.174;9.782;2023-03-01T07:30:17;39.37;;;18.50;;
21657;SDS011;10990;48.174;9.782;2023-03-01T07:32:45;40.97;;;18.83;;
21657;SDS011;10990;48.174;9.782;2023-03-01T07:35:12;38.53;;;18.57;;
21657;SDS011;10990;48.174;9.782;2023-03-01T07:37:39;44.37;;;19.70;;
21657;SDS011;10990;48.174;9.782;2023-03-01T07:40:07;38.73;;;19.63;;
21657;SDS011;10990;48.174;9.782;2023-03-01T07:42:34;40.13;;;19.57;;
21657;SDS011;10990;48.174;9.782;2023-03-01T07:45:02;35.43;;;18.07;;
21657;SDS011;10990;48.174;9.782;2023-03-01T07:47:29;42.27;;;19.70;;
21657;SDS011;10990;48.174;9.782;2023-03-01T07:49:57;40.33;;;18.80;;
21657;SDS011;10990;48.174;9.782;2023-03-01T07:52:24;39.00;;;19.03;;
21657;SDS011;10990;48.174;9.782;2023-03-01T07:54:50;38.83;;;18.80;;
21657;SDS011;10990;48.174;9.782;2023-03-01T07:57:17;39.53;;;18.93;;
21657;SDS011;10990;48.174;9.782;2023-03-01T07:59:44;37.30;;;18.43;;
21657;SDS011;10990;48.174;9.782;2023-03-01T08:02:11;37.53;;;19.00;;
21657;SDS011;10990;48.174;9.782;2023-03-01T08:04:37;40.07;;;19.13;;
21657;SDS011;10990;48.174;9.782;2023-03-01T08:07:05;42.10;;;18.97;;
21657;SDS011;10990;48.174;9.782;2023-03-01T08:09:34;41.13;;;19.43;;
21657;SDS011;10990;48.174;9.782;2023-03-01T08:12:01;37.07;;;19.20;;
21657;SDS011;10990;48.174;9.782;2023-03-01T08:14:28;39.17;;;18.57;;
21657;SDS011;10990;48.174;9.782;2023-03-01T08:16:55;37.53;;;18.20;;
21657;SDS011;10990;48.174;9.782;2023-03-01T08:19:21;35.70;;;17.77;;
21657;SDS011;10990;48.174;9.782;2023-03-01T08:21:48;36.50;;;18.20;;
21657;SDS011;10990;48.174;9.782;2023-03-01T08:24:16;41.17;;;19.27;;
21657;SDS011;10990;48.174;9.782;2023-03-01T08:26:43;40.67;;;18.60;;
21657;SDS011;10990;48.174;9.782;2023-03-01T08:29:10;42.80;;;19.43;;
21657;SDS011;10990;48.174;9.782;2023-03-01T08:31:37;41.00;;;18.93;;
21657;SDS011;10990;48.174;9.782;2023-03-01T08:34:06;43.27;;;19.90;;
21657;SDS011;10990;48.174;9.782;2023-03-01T08:36:35;37.50;;;18.47;;
21657;SDS011;10990;48.174;9.782;2023-03-01T08:39:03;37.03;;;18.20;;
21657;SDS011;10990;48.174;9.782;2023-03-01T08:41:32;39.17;;;19.67;;
21657;SDS011;10990;48.174;9.782;2023-03-01T08:43:59;42.40;;;18.77;;
21657;SDS011;10990;48.174;9.782;2023-03-01T08:46:26;41.97;;;19.33;;
21657;SDS011;10990;48.174;9.782;2023-03-01T08:48:54;39.03;;;19.03;;
21657;SDS011;10990;48.174;9.782;2023-03-01T08:51:21;41.37;;;19.93;;
21657;SDS011;10990;48.174;9.782;2023-03-01T08:53:48;42.37;;;19.50;;
21657;SDS011;10990;48.174;9.782;2023-03-01T08:56:15;39.47;;;19.27;;
21657;SDS011;10990;48.174;9.782;2023-03-01T08:58:44;39.23;;;19.37;;
21657;SDS011;10990;48.174;9.782;2023-03-01T09:01:12;39.33;;;19.03;;
21657;SDS011;10990;48.174;9.782;2023-03-01T09:03:41;40.07;;;19.10;;
21657;SDS011;10990;48.174;9.782;2023-03-01T09:06:11;37.00;;;18.57;;
21657;SDS011;10990;48.174;9.782;2023-03-01T09:08:39;37.60;;;19.03;;
21657;SDS011;10990;48.174;9.782;2023-03-01T09:11:09;34.93;;;18.20;;
21657;SDS011;10990;48.174;9.782;2023-03-01T09:13:36;39.10;;;18.60;;
21657;SDS011;10990;48.174;9.782;2023-03-01T09:16:06;39.77;;;19.33;;
21657;SDS011;10990;48.174;9.782;2023-03-01T09:18:34;36.70;;;19.00;;
21657;SDS011;10990;48.174;9.782;2023-03-01T09:21:01;41.00;;;19.43;;
21657;SDS011;10990;48.174;9.782;2023-03-01T09:23:32;40.27;;;18.87;;
21657;SDS011;10990;48.174;9.782;2023-03-01T09:26:01;38.20;;;19.10;;
21657;SDS011;10990;48.174;9.782;2023-03-01T09:28:28;39.70;;;19.73;;
21657;SDS011;10990;48.174;9.782;2023-03-01T09:30:57;39.03;;;18.87;;
21657;SDS011;10990;48.174;9.782;2023-03-01T09:33:25;38.77;;;19.17;;
21657;SDS011;10990;48.174;9.782;2023-03-01T09:35:55;42.77;;;18.73;;
21657;SDS011;10990;48.174;9.782;2023-03-01T09:38:22;39.60;;;18.83;;
21657;SDS011;10990;48.174;9.782;2023-03-01T09:40:49;40.03;;;18.90;;
21657;SDS011;10990;48.174;9.782;2023-03-01T09:43:18;40.40;;;18.53;;
21657;SDS011;10990;48.174;9.782;2023-03-01T09:45:49;41.20;;;18.60;;
21657;SDS011;10990;48.174;9.782;2023-03-01T09:48:20;38.90;;;18.80;;
21657;SDS011;10990;48.174;9.782;2023-03-01T09:50:51;40.33;;;19.67;;
21657;SDS011;10990;48.174;9.782;2023-03-01T09:53:19;39.33;;;18.60;;
21657;SDS011;10990;48.174;9.782;2023-03-01T09:55:48;39.13;;;19.33;;
21657;SDS011;10990;48.174;9.782;2023-03-01T10:01:19;40.70;;;18.13;;
21657;SDS011;10990;48.174;9.782;2023-03-01T10:06:58;42.50;;;19.60;;
21657;SDS011;10990;48.174;9.782;2023-03-01T10:09:33;39.13;;;17.63;;
21657;SDS011;10990;48.174;9.782;2023-03-01T10:12:02;42.67;;;18.10;;
21657;SDS011;10990;48.174;9.782;2023-03-01T10:14:36;41.37;;;18.33;;
21657;SDS011;10990;48.174;9.782;2023-03-01T10:17:08;35.40;;;18.20;;
21657;SDS011;10990;48.174;9.782;2023-03-01T10:19:45;43.53;;;19.57;;
21657;SDS011;10990;48.174;9.782;2023-03-01T10:22:15;43.93;;;18.80;;
21657;SDS011;10990;48.174;9.782;2023-03-01T10:24:46;36.93;;;18.10;;
21657;SDS011;10990;48.174;9.782;2023-03-01T10:27:15;44.63;;;19.60;;
21657;SDS011;10990;48.174;9.782;2023-03-01T10:29:49;44.50;;;19.90;;
21657;SDS011;10990;48.174;9.782;2023-03-01T10:32:24;43.30;;;20.13;;
21657;SDS011;10990;48.174;9.782;2023-03-01T10:34:52;38.40;;;18.33;;
21657;SDS011;10990;48.174;9.782;2023-03-01T10:37:21;40.30;;;19.50;;
21657;SDS011;10990;48.174;9.782;2023-03-01T10:39:57;39.07;;;19.00;;
21657;SDS011;10990;48.174;9.782;2023-03-01T10:42:26;44.27;;;19.37;;
21657;SDS011;10990;48.174;9.782;2023-03-01T10:44:55;41.60;;;20.50;;
21657;SDS011;10990;48.174;9.782;2023-03-01T10:47:22;42.73;;;20.00;;
21657;SDS011;10990;48.174;9.782;2023-03-01T10:49:54;40.90;;;19.53;;
21657;SDS011;10990;48.174;9.782;2023-03-01T10:52:29;40.40;;;18.60;;
21657;SDS011;10990;48.174;9.782;2023-03-01T10:54:58;41.43;;;19.90;;
21657;SDS011;10990;48.174;9.782;2023-03-01T10:57:29;40.17;;;19.07;;
21657;SDS011;10990;48.174;9.782;2023-03-01T11:00:19;40.80;;;19.50;;
21657;SDS011;10990;48.174;9.782;2023-03-01T11:02:48;44.27;;;20.40;;
21657;SDS011;10990;48.174;9.782;2023-03-01T11:05:18;43.67;;;19.33;;
21657;SDS011;10990;48.174;9.782;2023-03-01T11:07:51;42.40;;;19.43;;
21657;SDS011;10990;48.174;9.782;2023-03-01T11:10:19;41.97;;;18.83;;
21657;SDS011;10990;48.174;9.782;2023-03-01T11:12:47;45.57;;;20.57;;
21657;SDS011;10990;48.174;9.782;2023-03-01T11:15:23;45.37;;;19.90;;
21657;SDS011;10990;48.174;9.782;2023-03-01T11:17:51;47.33;;;19.57;;
21657;SDS011;10990;48.174;9.782;2023-03-01T11:20:21;41.03;;;19.93;;
21657;SDS011;10990;48.174;9.782;2023-03-01T11:22:54;43.53;;;20.47;;
21657;SDS011;10990;48.174;9.782;2023-03-01T11:25:23;43.13;;;19.93;;
21657;SDS011;10990;48.174;9.782;2023-03-01T11:27:52;44.13;;;21.03;;
21657;SDS011;10990;48.174;9.782;2023-03-01T11:30:20;42.23;;;19.90;;
21657;SDS011;10990;48.174;9.782;2023-03-01T11:32:53;45.30;;;20.20;;
21657;SDS011;10990;48.174;9.782;2023-03-01T11:35:29;39.20;;;19.57;;
21657;SDS011;10990;48.174;9.782;2023-03-01T11:38:03;39.03;;;19.30;;
21657;SDS011;10990;48.174;9.782;2023-03-01T11:40:39;40.03;;;20.00;;
21657;SDS011;10990;48.174;9.782;2023-03-01T11:43:12;35.63;;;18.33;;
21657;SDS011;10990;48.174;9.782;2023-03-01T11:45:53;38.93;;;19.47;;
21657;SDS011;10990;48.174;9.782;2023-03-01T11:48:31;38.80;;;19.17;;
21657;SDS011;10990;48.174;9.782;2023-03-01T11:51:16;38.87;;;19.43;;
21657;SDS011;10990;48.174;9.782;2023-03-01T11:53:56;49.70;;;22.80;;
21657;SDS011;10990;48.174;9.782;2023-03-01T11:56:37;41.47;;;20.53;;
21657;SDS011;10990;48.174;9.782;2023-03-01T12:02:01;41.80;;;19.50;;
21657;SDS011;10990;48.174;9.782;2023-03-01T12:04:54;41.27;;;20.70;;
21657;SDS011;10990;48.174;9.782;2023-03-01T12:07:41;38.80;;;19.03;;
21657;SDS011;10990;48.174;9.782;2023-03-01T12:10:21;38.13;;;19.10;;
21657;SDS011;10990;48.174;9.782;2023-03-01T12:12:55;35.23;;;18.67;;
21657;SDS011;10990;48.174;9.782;2023-03-01T12:18:25;36.87;;;19.27;;
21657;SDS011;10990;48.174;9.782;2023-03-01T12:21:29;35.50;;;18.10;;
21657;SDS011;10990;48.174;9.782;2023-03-01T12:24:07;33.90;;;17.17;;
21657;SDS011;10990;48.174;9.782;2023-03-01T12:26:53;37.40;;;18.67;;
21657;SDS011;10990;48.174;9.782;2023-03-01T12:29:34;36.20;;;17.83;;
21657;SDS011;10990;48.174;9.782;2023-03-01T12:32:15;39.87;;;19.10;;
21657;SDS011;10990;48.174;9.782;2023-03-01T12:34:55;37.27;;;19.57;;
21657;SDS011;10990;48.174;9.782;2023-03-01T12:37:36;35.70;;;18.70;;
21657;SDS011;10990;48.174;9.782;2023-03-01T12:40:15;38.00;;;19.13;;
21657;SDS011;10990;48.174;9.782;2023-03-01T12:43:04;36.90;;;19.03;;
21657;SDS011;10990;48.174;9.782;2023-03-01T12:45:47;36.20;;;19.17;;
21657;SDS011;10990;48.174;9.782;2023-03-01T12:48:32;34.93;;;17.77;;
21657;SDS011;10990;48.174;9.782;2023-03-01T12:51:07;35.73;;;18.63;;
21657;SDS011;10990;48.174;9.782;2023-03-01T12:53:39;40.57;;;18.87;;
21657;SDS011;10990;48.174;9.782;2023-03-01T12:56:08;39.27;;;18.10;;
21657;SDS011;10990;48.174;9.782;2023-03-01T12:58:41;34.50;;;18.00;;
21657;SDS011;10990;48.174;9.782;2023-03-01T13:01:19;38.03;;;19.63;;
21657;SDS011;10990;48.174;9.782;2023-03-01T13:03:58;37.67;;;19.00;;
21657;SDS011;10990;48.174;9.782;2023-03-01T13:06:32;36.03;;;18.73;;
21657;SDS011;10990;48.174;9.782;2023-03-01T13:09:08;36.17;;;19.13;;
21657;SDS011;10990;48.174;9.782;2023-03-01T13:11:43;37.33;;;18.27;;
21657;SDS011;10990;48.174;9.782;2023-03-01T13:19:57;38.63;;;19.53;;
21657;SDS011;10990;48.174;9.782;2023-03-01T13:22:25;37.07;;;18.47;;
21657;SDS011;10990;48.174;9.782;2023-03-01T13:27:41;36.60;;;18.73;;
21657;SDS011;10990;48.174;9.782;2023-03-01T13:36:13;35.17;;;18.87;;
21657;SDS011;10990;48.174;9.782;2023-03-01T13:39:30;37.37;;;19.10;;
21657;SDS011;10990;48.174;9.782;2023-03-01T13:42:27;37.77;;;19.73;;
21657;SDS011;10990;48.174;9.782;2023-03-01T13:45:02;38.83;;;19.63;;
21657;SDS011;10990;48.174;9.782;2023-03-01T13:47:30;33.10;;;18.60;;
21657;SDS011;10990;48.174;9.782;2023-03-01T13:50:01;35.87;;;19.00;;
21657;SDS011;10990;48.174;9.782;2023-03-01T13:52:32;35.83;;;19.53;;
21657;SDS011;10990;48.174;9.782;2023-03-01T13:55:03;39.47;;;20.87;;
21657;SDS011;10990;48.174;9.782;2023-03-01T13:57:33;38.47;;;18.93;;
21657;SDS011;10990;48.174;9.782;2023-03-01T14:00:04;35.80;;;19.37;;
21657;SDS011;10990;48.174;9.782;2023-03-01T14:02:33;34.10;;;18.80;;
21657;SDS011;10990;48.174;9.782;2023-03-01T14:05:01;38.67;;;19.63;;
21657;SDS011;10990;48.174;9.782;2023-03-01T14:07:28;36.13;;;19.47;;
21657;SDS011;10990;48.174;9.782;2023-03-01T14:09:56;36.07;;;18.50;;
21657;SDS011;10990;48.174;9.782;2023-03-01T14:12:32;39.63;;;19.73;;
21657;SDS011;10990;48.174;9.782;2023-03-01T14:15:14;33.07;;;19.10;;
21657;SDS011;10990;48.174;9.782;2023-03-01T14:17:50;37.00;;;18.33;;
21657;SDS011;10990;48.174;9.782;2023-03-01T14:20:25;36.93;;;18.97;;
21657;SDS011;10990;48.174;9.782;2023-03-01T14:22:55;39.97;;;19.60;;
21657;SDS011;10990;48.174;9.782;2023-03-01T14:25:26;36.17;;;19.43;;
21657;SDS011;10990;48.174;9.782;2023-03-01T14:27:59;36.13;;;19.40;;
21657;SDS011;10990;48.174;9.782;2023-03-01T14:30:31;35.40;;;18.67;;
21657;SDS011;10990;48.174;9.782;2023-03-01T14:33:02;37.17;;;18.83;;
21657;SDS011;10990;48.174;9.782;2023-03-01T14:35:33;33.30;;;18.47;;
21657;SDS011;10990;48.174;9.782;2023-03-01T14:38:01;33.87;;;18.77;;
21657;SDS011;10990;48.174;9.782;2023-03-01T14:40:29;32.67;;;18.03;;
21657;SDS011;10990;48.174;9.782;2023-03-01T14:42:59;36.87;;;19.50;;
21657;SDS011;10990;48.174;9.782;2023-03-01T14:45:28;35.53;;;19.03;;
21657;SDS011;10990;48.174;9.782;2023-03-01T14:47:58;39.83;;;19.83;;
21657;SDS011;10990;48.174;9.782;2023-03-01T14:50:29;38.40;;;20.47;;
21657;SDS011;10990;48.174;9.782;2023-03-01T14:52:58;34.63;;;19.00;;
21657;SDS011;10990;48.174;9.782;2023-03-01T14:55:27;34.50;;;18.77;;
21657;SDS011;10990;48.174;9.782;2023-03-01T14:57:57;36.30;;;18.83;;
21657;SDS011;10990;48.174;9.782;2023-03-01T15:00:25;36.73;;;19.60;;
21657;SDS011;10990;48.174;9.782;2023-03-01T15:02:55;37.83;;;19.00;;
21657;SDS011;10990;48.174;9.782;2023-03-01T15:05:26;34.20;;;18.37;;